Apia Wharf, Samoa

5:38 PM WSDT on February 11, 2016 (GMT +1400)
Faleolo International | | Change Station
CLOSE
Current Station
Airport
Location: Faleolo,
Elevation: 16 ft
Nearby Weather Stations

Elev 16 ft 13.83 °S, 172.01 °W | Updated 38 minutes ago

Mostly Cloudy
Mostly Cloudy
93 °F
Feels Like 107 °F
N
8
Wind Variable Wind from East

Today
High -- | Low -- °F
--% Chance of Precip.
Yesterday
High -- | Low -- °F
Precip. -- in
Pressure 29.77 in
Visibility 6.2 miles
Clouds Few 2400 ft
Mostly Cloudy 16000 ft
Heat Index 107 °F
Dew Point 77 °F
Humidity 59%
Rainfall 0.00 in
Snow Depth Not available.
7:23 AM 7:58 PM
Waxing Crescent, 9% visible
METAR NSFA 110300Z 09007KT 9999 FEW024 BKN160 34/25 Q1008
Pressure 29.77 in
Visibility 6.2 miles
Clouds Few 2400 ft
Mostly Cloudy 16000 ft
Heat Index 107 °F
Dew Point 77 °F
Humidity 59%
Rainfall 0.00 in
Snow Depth Not available.
7:23 AM 7:58 PM
Waxing Crescent, 9% visible
METAR NSFA 110300Z 09007KT 9999 FEW024 BKN160 34/25 Q1008

10-Day Weather Forecast

No radar image for this location.
×

Almanac

Astronomy

Feb. 11, 2016 Rise Set
Actual Time
Civil Twilight
Nautical Twilight
Astronomical Twilight
Moon
Length of Visible Light
Length of Day
Tomorrow will be .
, % of the Moon is Illuminated

Today's Extremes

Country Highs Country Lows

Community

WunderPhotos

Upload Photos

1,891,994 photos uploaded!

WunderBlog® & News

Nearby

Air Quality

  Air Quality AQ Index Pollutant
Not available.

Snow Depth

Station Depth Elevation

Earthquake Activity

City Distance Mag. Time & Date
Minimum magnitude displayed is 2.5.

Coastal Water Temperatures

Place Temperature

Stations

Nearby Weather Stations

Station Location Temp. Windchill Dew Point Humidity Wind Precip. Elev Updated Type